createdAt,value
2022-11-22T00:01:30.710Z,19.88
2022-11-22T00:04:16.271Z,17.42
2022-11-22T00:07:01.707Z,19.38
2022-11-22T00:09:47.086Z,29.05
2022-11-22T00:12:32.710Z,17.60
2022-11-22T00:15:18.316Z,21.83
2022-11-22T00:18:03.963Z,20.60
2022-11-22T00:20:49.783Z,26.67
2022-11-22T00:23:35.315Z,25.98
2022-11-22T00:30:01.605Z,22.95
2022-11-22T00:32:49.823Z,29.23
2022-11-22T00:35:38.351Z,19.60
2022-11-22T00:38:23.501Z,32.67
2022-11-22T00:41:09.813Z,31.60
2022-11-22T00:43:55.312Z,23.80
2022-11-22T00:46:43.925Z,19.90
2022-11-22T00:49:29.877Z,19.40
2022-11-22T00:52:15.256Z,23.50
2022-11-22T00:55:00.775Z,18.05
2022-11-22T00:57:46.258Z,21.25
2022-11-22T01:00:31.627Z,19.40
2022-11-22T01:03:17.210Z,21.17
2022-11-22T01:06:02.562Z,25.27
2022-11-22T01:08:48.338Z,22.15
2022-11-22T01:11:33.818Z,18.17
2022-11-22T01:14:19.650Z,19.00
2022-11-22T01:17:05.254Z,21.02
2022-11-22T01:19:50.604Z,15.95
2022-11-22T01:22:36.287Z,15.40
2022-11-22T01:25:21.890Z,14.80
2022-11-22T01:28:07.325Z,15.60
2022-11-22T01:30:53.754Z,22.98
2022-11-22T01:33:39.463Z,21.73
2022-11-22T01:36:25.809Z,18.08
2022-11-22T01:39:13.748Z,25.42
2022-11-22T01:42:02.045Z,23.27
2022-11-22T01:44:48.329Z,19.25
2022-11-22T01:47:34.295Z,17.65
2022-11-22T01:50:19.661Z,23.98
2022-11-22T01:53:10.791Z,19.95
2022-11-22T01:56:01.509Z,23.02
2022-11-22T01:58:51.658Z,21.33
2022-11-22T02:01:38.074Z,26.35
2022-11-22T02:04:26.424Z,19.13
2022-11-22T02:07:18.836Z,20.08
2022-11-22T02:10:04.901Z,18.67
2022-11-22T02:12:53.277Z,20.90
2022-11-22T02:15:38.535Z,27.20
2022-11-22T02:18:24.041Z,17.95
2022-11-22T02:21:11.265Z,22.45
2022-11-22T02:24:08.780Z,23.75
2022-11-22T02:26:54.205Z,21.40
2022-11-22T02:29:40.978Z,34.20
2022-11-22T02:32:26.310Z,19.15
2022-11-22T02:35:30.389Z,26.10
2022-11-22T02:38:26.089Z,26.90
2022-11-22T02:41:12.486Z,26.17
2022-11-22T02:43:58.106Z,22.27
2022-11-22T02:46:52.948Z,22.52
2022-11-22T02:49:38.531Z,32.78
2022-11-22T02:52:26.583Z,23.63
2022-11-22T02:55:11.972Z,21.95
2022-11-22T02:57:57.443Z,19.00
2022-11-22T03:00:42.891Z,29.27
2022-11-22T03:03:28.385Z,14.13
2022-11-22T03:06:14.025Z,21.52
2022-11-22T03:08:59.557Z,25.90
2022-11-22T03:11:45.258Z,17.58
2022-11-22T03:14:30.611Z,26.92
2022-11-22T03:17:19.677Z,24.83
2022-11-22T03:20:05.770Z,22.20
2022-11-22T03:22:51.157Z,22.42
2022-11-22T03:25:41.745Z,21.00
2022-11-22T03:28:27.527Z,17.80
2022-11-22T03:31:13.100Z,21.80
2022-11-22T03:33:58.253Z,27.20
2022-11-22T03:36:43.951Z,28.48
2022-11-22T03:39:29.617Z,18.00
2022-11-22T03:42:19.867Z,20.80
2022-11-22T03:45:07.647Z,25.73
2022-11-22T03:47:53.509Z,20.65
2022-11-22T03:50:39.071Z,23.95
2022-11-22T03:53:24.238Z,22.60
2022-11-22T03:56:09.957Z,16.92
2022-11-22T03:58:55.426Z,24.60
2022-11-22T04:01:41.266Z,16.88
2022-11-22T04:04:26.611Z,21.27
2022-11-22T04:07:12.367Z,21.40
2022-11-22T04:09:57.670Z,19.67
2022-11-22T04:12:45.466Z,14.18
2022-11-22T04:15:30.719Z,16.90
2022-11-22T04:18:16.226Z,26.35
2022-11-22T04:21:26.275Z,24.60
2022-11-22T04:24:30.762Z,18.00
2022-11-22T04:27:15.970Z,26.20
2022-11-22T04:30:09.125Z,18.23
2022-11-22T04:32:54.202Z,19.70
2022-11-22T04:35:40.811Z,21.20
2022-11-22T04:38:26.470Z,28.00
2022-11-22T04:41:11.706Z,17.17
2022-11-22T04:44:17.485Z,23.58
2022-11-22T04:47:02.812Z,19.75
2022-11-22T04:49:48.125Z,20.17
2022-11-22T04:52:52.090Z,17.33
2022-11-22T04:55:37.364Z,21.92
2022-11-22T04:58:23.522Z,12.82
2022-11-22T05:01:09.529Z,18.85
2022-11-22T05:03:54.576Z,27.58
2022-11-22T05:06:40.310Z,26.05
2022-11-22T05:09:25.784Z,24.98
2022-11-22T05:12:13.973Z,20.17
2022-11-22T05:14:59.586Z,25.35
2022-11-22T05:17:45.957Z,23.90
2022-11-22T05:20:31.438Z,29.85
2022-11-22T05:23:38.987Z,23.73
2022-11-22T05:26:30.093Z,20.00
2022-11-22T05:29:15.978Z,19.88
2022-11-22T05:32:01.220Z,20.52
2022-11-22T05:34:47.041Z,20.20
2022-11-22T05:37:32.469Z,17.88
2022-11-22T05:40:17.630Z,17.75
2022-11-22T05:43:05.921Z,22.92
2022-11-22T05:45:51.498Z,20.08
2022-11-22T05:48:38.337Z,20.35
2022-11-22T05:51:33.689Z,16.60
2022-11-22T05:54:20.162Z,16.20
2022-11-22T05:57:06.394Z,16.33
2022-11-22T05:59:51.630Z,23.30
2022-11-22T06:02:41.246Z,17.27
2022-11-22T06:05:27.970Z,25.50
2022-11-22T06:08:13.238Z,20.33
2022-11-22T06:11:23.312Z,18.52
2022-11-22T06:14:09.483Z,23.48
2022-11-22T06:16:55.160Z,14.73
2022-11-22T06:19:40.647Z,12.90
2022-11-22T06:22:26.449Z,22.13
2022-11-22T06:25:11.742Z,17.83
2022-11-22T06:27:59.750Z,14.02
2022-11-22T06:30:46.025Z,15.45
2022-11-22T06:33:31.527Z,18.75
2022-11-22T06:36:22.035Z,15.00
2022-11-22T06:39:07.888Z,23.13
2022-11-22T06:41:53.135Z,15.15
2022-11-22T06:44:38.543Z,16.42
2022-11-22T06:47:25.244Z,15.98
2022-11-22T06:50:10.937Z,16.05
2022-11-22T06:52:58.682Z,18.35
2022-11-22T06:55:53.495Z,14.10
2022-11-22T06:58:45.939Z,11.77
2022-11-22T07:01:32.935Z,12.77
2022-11-22T07:04:18.182Z,19.00
2022-11-22T07:07:06.398Z,9.23
2022-11-22T07:09:56.276Z,12.68
2022-11-22T07:12:42.482Z,18.50
2022-11-22T07:15:27.619Z,14.93
2022-11-22T07:18:13.170Z,13.85
2022-11-22T07:21:12.466Z,15.38
2022-11-22T07:23:58.910Z,13.02
2022-11-22T07:26:44.285Z,9.98
2022-11-22T07:29:29.965Z,29.77
2022-11-22T07:32:15.689Z,23.35
2022-11-22T07:35:01.325Z,15.52
2022-11-22T07:37:47.398Z,11.68
2022-11-22T07:40:33.149Z,10.02
2022-11-22T07:43:18.576Z,18.48
2022-11-22T07:46:06.628Z,12.23
2022-11-22T07:48:52.443Z,12.98
2022-11-22T07:51:38.140Z,15.82
2022-11-22T07:54:23.774Z,18.25
2022-11-22T07:57:09.048Z,15.57
2022-11-22T07:59:54.457Z,10.55
2022-11-22T08:02:40.083Z,15.13
2022-11-22T08:05:26.410Z,16.42
2022-11-22T08:08:11.875Z,11.48
2022-11-22T08:10:57.644Z,11.55
2022-11-22T08:13:44.007Z,15.80
2022-11-22T08:16:29.517Z,18.35
2022-11-22T08:19:17.798Z,8.95
2022-11-22T08:22:03.397Z,13.20
2022-11-22T08:24:48.718Z,11.07
2022-11-22T08:27:34.244Z,14.30
2022-11-22T08:30:19.936Z,14.93
2022-11-22T08:33:05.277Z,19.70
2022-11-22T08:35:51.144Z,14.43
2022-11-22T08:38:38.765Z,14.27
2022-11-22T08:41:25.011Z,16.20
2022-11-22T08:44:16.275Z,15.32
2022-11-22T08:47:01.966Z,11.95
2022-11-22T08:49:47.207Z,13.95
2022-11-22T08:52:34.644Z,13.77
2022-11-22T08:55:20.010Z,11.95
2022-11-22T08:58:05.851Z,11.35
2022-11-22T09:00:53.767Z,16.05
2022-11-22T09:03:40.061Z,16.52
2022-11-22T09:09:39.769Z,15.40
2022-11-22T09:12:25.132Z,11.88
2022-11-22T09:15:10.709Z,16.23
2022-11-22T09:18:02.934Z,13.15
2022-11-22T09:20:48.097Z,8.93
2022-11-22T09:23:34.416Z,10.52
2022-11-22T09:26:25.128Z,11.57
2022-11-22T09:29:10.634Z,8.35
2022-11-22T09:31:56.139Z,11.95
2022-11-22T09:34:41.871Z,12.20
2022-11-22T09:37:27.228Z,10.32
2022-11-22T09:40:13.959Z,12.88
2022-11-22T09:43:05.986Z,13.90
2022-11-22T09:46:06.948Z,11.23
2022-11-22T09:49:04.092Z,16.13
2022-11-22T09:52:00.410Z,15.98
2022-11-22T09:54:59.291Z,10.25
2022-11-22T09:57:48.864Z,8.02
2022-11-22T10:00:35.166Z,10.63
2022-11-22T10:03:47.012Z,11.60
2022-11-22T10:06:37.387Z,12.27
2022-11-22T10:09:34.482Z,10.05
2022-11-22T10:12:22.516Z,7.53
2022-11-22T10:15:13.553Z,11.90
2022-11-22T10:18:05.993Z,9.52
2022-11-22T10:20:52.650Z,9.80
2022-11-22T10:23:38.406Z,17.58
2022-11-22T10:26:50.542Z,11.65
2022-11-22T10:30:05.079Z,10.93
2022-11-22T10:33:15.397Z,11.32
2022-11-22T10:36:22.940Z,10.98
2022-11-22T10:39:34.068Z,11.80
2022-11-22T10:42:34.615Z,14.75
2022-11-22T10:45:28.958Z,11.60
2022-11-22T10:48:48.809Z,5.93
2022-11-22T10:52:05.157Z,10.80
2022-11-22T10:57:55.470Z,5.28
2022-11-22T11:00:51.740Z,6.60
2022-11-22T11:03:43.344Z,14.80
2022-11-22T11:06:57.122Z,9.20
2022-11-22T11:10:27.446Z,12.85
2022-11-22T11:13:50.735Z,11.55
2022-11-22T11:16:37.809Z,8.73
2022-11-22T11:19:25.337Z,8.27
2022-11-22T11:22:50.405Z,11.52
2022-11-22T11:25:40.277Z,11.63
2022-11-22T11:28:30.969Z,8.60
2022-11-22T11:31:19.028Z,10.80
2022-11-22T11:34:20.659Z,5.95
2022-11-22T11:37:06.593Z,10.77
2022-11-22T11:39:53.475Z,12.65
2022-11-22T11:42:41.653Z,14.65
2022-11-22T11:45:29.068Z,7.47
2022-11-22T11:48:43.481Z,11.02
2022-11-22T11:51:38.812Z,11.60
2022-11-22T11:54:29.808Z,10.00
2022-11-22T11:57:19.223Z,10.93
2022-11-22T12:00:07.237Z,5.03
2022-11-22T12:03:00.813Z,13.30
2022-11-22T12:05:47.676Z,10.43
2022-11-22T12:08:36.052Z,12.13
2022-11-22T12:11:37.937Z,8.07
2022-11-22T12:14:30.412Z,6.15
2022-11-22T12:17:27.357Z,12.65
2022-11-22T12:20:19.349Z,4.45
2022-11-22T12:23:32.655Z,7.88
2022-11-22T12:26:18.166Z,8.32
2022-11-22T12:29:14.536Z,6.65
2022-11-22T12:32:11.838Z,8.23
2022-11-22T12:35:12.250Z,15.13
2022-11-22T12:38:09.592Z,10.40
2022-11-22T12:40:58.464Z,8.30
2022-11-22T12:43:53.987Z,10.65
2022-11-22T12:46:46.661Z,5.57
2022-11-22T12:49:59.034Z,7.90
2022-11-22T12:53:04.906Z,3.83
2022-11-22T12:56:06.261Z,9.00
2022-11-22T12:59:08.974Z,7.82
2022-11-22T13:02:15.107Z,6.68
2022-11-22T13:05:15.525Z,11.07
2022-11-22T13:08:18.894Z,3.85
2022-11-22T13:11:35.786Z,5.80
2022-11-22T13:14:33.949Z,8.88
2022-11-22T13:17:24.578Z,7.78
2022-11-22T13:20:18.085Z,6.35
2022-11-22T13:23:09.941Z,6.10
2022-11-22T13:26:14.721Z,4.40
2022-11-22T13:29:09.630Z,6.75
2022-11-22T13:32:12.081Z,6.95
2022-11-22T13:35:03.146Z,6.82
2022-11-22T13:37:56.733Z,7.38
2022-11-22T13:40:46.353Z,7.45
2022-11-22T13:43:50.414Z,4.22
2022-11-22T13:46:54.948Z,8.38
2022-11-22T13:49:49.181Z,6.45
2022-11-22T13:52:52.623Z,4.43
2022-11-22T13:55:42.348Z,6.72
2022-11-22T13:58:28.731Z,8.15
2022-11-22T14:01:34.225Z,5.30
2022-11-22T14:04:32.027Z,5.10
2022-11-22T14:07:20.451Z,4.55
2022-11-22T14:10:40.488Z,4.60
2022-11-22T14:13:34.992Z,3.33
2022-11-22T14:16:40.325Z,6.55
2022-11-22T14:19:37.833Z,3.63
2022-11-22T14:22:46.198Z,2.65
2022-11-22T14:25:49.689Z,4.63
2022-11-22T14:28:45.456Z,6.53
2022-11-22T14:31:36.974Z,5.03
2022-11-22T14:34:25.543Z,9.80
2022-11-22T14:37:11.326Z,4.15
2022-11-22T14:40:09.150Z,6.35
2022-11-22T14:42:57.852Z,2.95
2022-11-22T14:45:51.673Z,4.25
2022-11-22T14:49:06.824Z,5.20
2022-11-22T14:51:54.070Z,3.33
2022-11-22T14:54:46.659Z,4.47
2022-11-22T14:57:36.778Z,3.60
2022-11-22T15:00:24.687Z,6.28
2022-11-22T15:03:16.377Z,5.97
2022-11-22T15:09:21.459Z,3.58
2022-11-22T15:09:46.727Z,4.63
2022-11-22T15:12:50.867Z,5.00
2022-11-22T15:59:48.620Z,5.90
2022-11-22T16:02:38.725Z,3.83
2022-11-22T16:06:05.511Z,8.55
2022-11-22T16:09:05.563Z,7.15
2022-11-22T16:11:55.150Z,4.35
2022-11-22T16:14:45.243Z,6.43
2022-11-22T16:17:32.133Z,5.80
2022-11-22T16:20:31.840Z,5.78
2022-11-22T16:23:25.208Z,5.65
2022-11-22T16:26:31.285Z,14.38
2022-11-22T16:32:16.705Z,5.93
2022-11-22T16:35:27.880Z,5.32
2022-11-22T16:40:55.790Z,7.20
2022-11-22T16:43:41.337Z,7.75
2022-11-22T16:46:26.993Z,6.78
2022-11-22T16:49:21.007Z,6.00
2022-11-22T16:52:11.646Z,6.75
2022-11-22T16:55:01.156Z,8.45
2022-11-22T16:57:47.036Z,6.03
2022-11-22T17:00:35.711Z,8.93
2022-11-22T17:03:29.599Z,10.95
2022-11-22T17:06:26.663Z,8.15
2022-11-22T17:09:12.865Z,11.38
2022-11-22T17:11:58.230Z,11.00
2022-11-22T17:14:44.341Z,14.25
2022-11-22T17:17:29.964Z,9.38
2022-11-22T17:20:15.380Z,8.52
2022-11-22T17:23:00.882Z,12.07
2022-11-22T17:25:46.523Z,11.77
2022-11-22T17:28:32.287Z,12.38
2022-11-22T17:31:19.942Z,9.20
2022-11-22T17:34:09.434Z,9.85
2022-11-22T17:36:54.611Z,11.20
2022-11-22T17:39:46.821Z,9.98
2022-11-22T17:42:35.575Z,10.73
2022-11-22T17:45:27.783Z,8.38
2022-11-22T17:48:12.981Z,9.70
2022-11-22T17:50:58.558Z,8.77
2022-11-22T17:53:43.800Z,10.98
2022-11-22T17:56:30.594Z,9.40
2022-11-22T17:59:16.576Z,15.38
2022-11-22T18:02:02.793Z,7.75
2022-11-22T18:04:48.299Z,10.80
2022-11-22T18:07:33.935Z,9.27
2022-11-22T18:10:23.173Z,11.45
2022-11-22T18:13:24.099Z,8.80
2022-11-22T18:16:12.529Z,12.05
2022-11-22T18:18:59.006Z,10.77
2022-11-22T18:21:44.366Z,9.38
2022-11-22T18:24:29.921Z,8.10
2022-11-22T18:27:15.534Z,12.85
2022-11-22T18:30:01.176Z,10.27
2022-11-22T18:32:46.594Z,9.68
2022-11-22T18:35:31.963Z,9.38
2022-11-22T18:38:17.881Z,7.30
2022-11-22T18:41:04.670Z,8.63
2022-11-22T18:43:54.206Z,9.35
2022-11-22T18:46:40.015Z,9.57
2022-11-22T18:49:25.350Z,10.30
2022-11-22T18:52:16.606Z,11.10
2022-11-22T18:55:04.774Z,11.15
2022-11-22T18:57:53.269Z,9.55
2022-11-22T19:00:40.637Z,11.23
2022-11-22T19:03:29.729Z,10.32
2022-11-22T19:06:19.402Z,12.45
2022-11-22T19:09:04.645Z,11.48
2022-11-22T19:11:55.571Z,14.88
2022-11-22T19:14:46.261Z,11.70
2022-11-22T19:17:40.782Z,19.58
2022-11-22T19:20:53.511Z,15.85
2022-11-22T19:26:23.182Z,10.75
2022-11-22T19:29:08.810Z,13.30
2022-11-22T19:31:54.201Z,19.63
2022-11-22T19:34:39.856Z,18.95
2022-11-22T19:37:28.030Z,15.88
2022-11-22T19:40:14.339Z,16.88
2022-11-22T19:42:59.775Z,20.92
2022-11-22T19:45:45.878Z,24.73
2022-11-22T19:48:31.914Z,22.70
2022-11-22T19:51:17.678Z,20.92
2022-11-22T19:54:03.664Z,15.60
2022-11-22T19:56:49.021Z,22.88
2022-11-22T19:59:35.911Z,21.35
2022-11-22T20:02:21.715Z,26.35
2022-11-22T20:05:07.410Z,25.98
2022-11-22T20:07:52.862Z,31.58
2022-11-22T20:10:41.251Z,20.70
2022-11-22T20:13:29.910Z,20.92
2022-11-22T20:16:23.395Z,18.65
2022-11-22T20:19:10.456Z,22.75
2022-11-22T20:21:58.397Z,16.25
2022-11-22T20:24:46.772Z,19.70
2022-11-22T20:27:32.411Z,21.35
2022-11-22T20:30:17.850Z,28.00
2022-11-22T20:33:03.155Z,21.40
2022-11-22T20:35:48.755Z,30.83
2022-11-22T20:38:36.398Z,28.20
2022-11-22T20:41:27.440Z,21.48
2022-11-22T20:44:14.135Z,25.70
2022-11-22T20:47:00.154Z,27.58
2022-11-22T20:49:47.871Z,24.40
2022-11-22T20:52:33.617Z,29.60
2022-11-22T20:55:20.419Z,24.88
2022-11-22T20:58:05.949Z,25.33
2022-11-22T21:00:55.593Z,27.13
2022-11-22T21:03:41.722Z,19.85
2022-11-22T21:06:28.017Z,25.52
2022-11-22T21:09:15.035Z,23.90
2022-11-22T21:12:03.944Z,26.88
2022-11-22T21:14:53.586Z,27.25
2022-11-22T21:17:55.736Z,23.88
2022-11-22T21:20:44.521Z,24.02
2022-11-22T21:23:30.847Z,23.15
2022-11-22T21:26:16.646Z,25.98
2022-11-22T21:29:04.121Z,22.00
2022-11-22T21:31:53.345Z,31.85
2022-11-22T21:34:38.746Z,20.05
2022-11-22T21:37:24.603Z,25.95
2022-11-22T21:40:10.454Z,24.17
2022-11-22T21:42:55.700Z,22.50
2022-11-22T21:45:41.378Z,28.35
2022-11-22T21:48:30.137Z,24.98
2022-11-22T21:51:15.400Z,19.60
2022-11-22T21:54:02.309Z,18.42
2022-11-22T21:56:47.780Z,21.30
2022-11-22T21:59:33.718Z,21.15
2022-11-22T22:02:19.015Z,23.30
2022-11-22T22:05:04.720Z,28.10
2022-11-22T22:07:52.989Z,20.75
2022-11-22T22:10:38.499Z,19.75
2022-11-22T22:13:28.866Z,22.50
2022-11-22T22:16:23.563Z,20.85
2022-11-22T22:19:09.990Z,19.75
2022-11-22T22:21:59.360Z,22.85
2022-11-22T22:24:44.821Z,25.67
2022-11-22T22:27:34.247Z,23.55
2022-11-22T22:30:29.110Z,21.23
2022-11-22T22:33:14.256Z,21.35
2022-11-22T22:36:00.413Z,21.00
2022-11-22T22:38:45.879Z,22.35
2022-11-22T22:41:32.368Z,23.25
2022-11-22T22:44:17.752Z,22.02
2022-11-22T22:47:03.473Z,21.95
2022-11-22T22:49:48.782Z,21.95
2022-11-22T22:52:34.634Z,24.02
2022-11-22T22:55:20.138Z,28.88
2022-11-22T22:58:05.802Z,23.00
2022-11-22T23:00:51.281Z,22.27
2022-11-22T23:03:37.881Z,27.75
2022-11-22T23:06:24.998Z,32.17
2022-11-22T23:09:11.451Z,30.10
2022-11-22T23:12:12.230Z,37.92
2022-11-22T23:14:57.438Z,35.47
2022-11-22T23:17:45.010Z,23.20
2022-11-22T23:20:32.953Z,29.67
2022-11-22T23:23:18.529Z,25.25
2022-11-22T23:26:06.537Z,35.08
2022-11-22T23:29:00.997Z,24.85
2022-11-22T23:31:46.427Z,25.50
2022-11-22T23:34:32.074Z,30.25
2022-11-22T23:37:17.684Z,27.42
2022-11-22T23:40:04.914Z,30.95
2022-11-22T23:42:50.148Z,38.75
2022-11-22T23:45:35.835Z,33.67
2022-11-22T23:48:21.532Z,35.97
2022-11-22T23:51:06.883Z,29.25
2022-11-22T23:54:00.826Z,42.17
2022-11-22T23:56:46.325Z,38.03
2022-11-22T23:59:34.445Z,36.88
